Dundee, Michigan
Current Conditions -  °F | °C
As of 11:35 PM on Monday 20 Oct 2014 (Local Time) from KTTF Reporting Station
Haze Haze  
Wind Chill: 11°   Ceiling: 7500
Heat Index: 11°   Visibility: 5mi
Dew Point: 11°   Wind: 6mph
Humidity: 100%   Direction: 320°NW
Pressure: 29.85"   Gusts: NA
Location:  41.96°N, 83.66°W
Report Text: KTTF 210335Z AUTO 32005KT 5SM BR BKN075 OVC090 11/11 A2985 RMK AO2
Loading
Personal Weather Stations






























Interactive Weather Map
Tropical Storm Tracking
New forecast layout! Learn more

10-Day Weather Forecast

Advertisements
Track Severe Weather on mobile